sensor_id;sensor_type;location;lat;lon;timestamp;temperature;humidity
68450;SHT30;55434;39.570;2.652;2022-08-25T00:01:16;26.92;71.64
68450;SHT30;55434;39.570;2.652;2022-08-25T00:03:42;26.86;71.76
68450;SHT30;55434;39.570;2.652;2022-08-25T00:06:09;26.90;71.70
68450;SHT30;55434;39.570;2.652;2022-08-25T00:08:35;26.90;71.65
68450;SHT30;55434;39.570;2.652;2022-08-25T00:11:16;26.83;72.39
68450;SHT30;55434;39.570;2.652;2022-08-25T00:13:45;26.78;72.46
68450;SHT30;55434;39.570;2.652;2022-08-25T00:16:13;26.93;71.94
68450;SHT30;55434;39.570;2.652;2022-08-25T00:18:42;26.89;72.24
68450;SHT30;55434;39.570;2.652;2022-08-25T00:21:12;26.89;71.94
68450;SHT30;55434;39.570;2.652;2022-08-25T00:23:38;26.89;71.63
68450;SHT30;55434;39.570;2.652;2022-08-25T00:26:04;26.83;71.56
68450;SHT30;55434;39.570;2.652;2022-08-25T00:28:30;26.86;71.71
68450;SHT30;55434;39.570;2.652;2022-08-25T00:30:57;26.87;71.80
68450;SHT30;55434;39.570;2.652;2022-08-25T00:33:26;26.95;72.76
68450;SHT30;55434;39.570;2.652;2022-08-25T00:35:52;26.96;73.27
68450;SHT30;55434;39.570;2.652;2022-08-25T00:38:19;26.95;72.78
68450;SHT30;55434;39.570;2.652;2022-08-25T00:40:45;26.99;74.11
68450;SHT30;55434;39.570;2.652;2022-08-25T00:43:11;27.04;73.06
68450;SHT30;55434;39.570;2.652;2022-08-25T00:45:37;27.03;74.01
68450;SHT30;55434;39.570;2.652;2022-08-25T00:48:05;27.04;74.47
68450;SHT30;55434;39.570;2.652;2022-08-25T00:50:32;27.04;74.83
68450;SHT30;55434;39.570;2.652;2022-08-25T00:53:01;27.04;74.98
68450;SHT30;55434;39.570;2.652;2022-08-25T00:55:31;27.11;74.95
68450;SHT30;55434;39.570;2.652;2022-08-25T00:58:08;27.11;74.94
68450;SHT30;55434;39.570;2.652;2022-08-25T01:00:42;27.14;74.58
68450;SHT30;55434;39.570;2.652;2022-08-25T01:03:09;27.17;74.61
68450;SHT30;55434;39.570;2.652;2022-08-25T01:05:36;27.23;75.60
68450;SHT30;55434;39.570;2.652;2022-08-25T01:08:03;27.20;75.85
68450;SHT30;55434;39.570;2.652;2022-08-25T01:10:34;27.20;76.30
68450;SHT30;55434;39.570;2.652;2022-08-25T01:13:05;27.17;76.43
68450;SHT30;55434;39.570;2.652;2022-08-25T01:15:33;27.17;76.44
68450;SHT30;55434;39.570;2.652;2022-08-25T01:17:59;27.14;76.46
68450;SHT30;55434;39.570;2.652;2022-08-25T01:20:28;27.14;76.05
68450;SHT30;55434;39.570;2.652;2022-08-25T01:22:54;27.11;76.55
68450;SHT30;55434;39.570;2.652;2022-08-25T01:28:15;27.02;77.15
68450;SHT30;55434;39.570;2.652;2022-08-25T01:30:40;27.02;77.25
68450;SHT30;55434;39.570;2.652;2022-08-25T01:33:08;27.00;77.18
68450;SHT30;55434;39.570;2.652;2022-08-25T01:35:34;27.10;75.77
68450;SHT30;55434;39.570;2.652;2022-08-25T01:38:02;26.53;73.77
68450;SHT30;55434;39.570;2.652;2022-08-25T01:40:28;26.44;74.30
68450;SHT30;55434;39.570;2.652;2022-08-25T01:43:02;26.46;74.04
68450;SHT30;55434;39.570;2.652;2022-08-25T01:45:31;26.45;73.71
68450;SHT30;55434;39.570;2.652;2022-08-25T01:47:57;26.42;73.98
68450;SHT30;55434;39.570;2.652;2022-08-25T01:50:23;26.28;74.63
68450;SHT30;55434;39.570;2.652;2022-08-25T01:53:03;26.11;75.34
68450;SHT30;55434;39.570;2.652;2022-08-25T01:55:31;26.21;75.18
68450;SHT30;55434;39.570;2.652;2022-08-25T01:58:17;26.28;74.96
68450;SHT30;55434;39.570;2.652;2022-08-25T02:00:45;26.15;75.26
68450;SHT30;55434;39.570;2.652;2022-08-25T02:03:11;26.20;75.11
68450;SHT30;55434;39.570;2.652;2022-08-25T02:05:37;26.17;75.36
68450;SHT30;55434;39.570;2.652;2022-08-25T02:08:03;26.32;74.96
68450;SHT30;55434;39.570;2.652;2022-08-25T02:10:28;26.48;74.41
68450;SHT30;55434;39.570;2.652;2022-08-25T02:12:54;26.49;74.37
68450;SHT30;55434;39.570;2.652;2022-08-25T02:15:20;26.35;74.73
68450;SHT30;55434;39.570;2.652;2022-08-25T02:17:45;26.18;75.32
68450;SHT30;55434;39.570;2.652;2022-08-25T02:20:11;26.48;74.54
68450;SHT30;55434;39.570;2.652;2022-08-25T02:22:37;26.48;74.36
68450;SHT30;55434;39.570;2.652;2022-08-25T02:25:03;26.35;74.98
68450;SHT30;55434;39.570;2.652;2022-08-25T02:27:29;26.12;75.82
68450;SHT30;55434;39.570;2.652;2022-08-25T02:29:55;25.91;76.54
68450;SHT30;55434;39.570;2.652;2022-08-25T02:32:20;25.84;76.89
68450;SHT30;55434;39.570;2.652;2022-08-25T02:34:47;25.71;77.33
68450;SHT30;55434;39.570;2.652;2022-08-25T02:37:12;25.69;77.46
68450;SHT30;55434;39.570;2.652;2022-08-25T02:39:38;25.71;77.53
68450;SHT30;55434;39.570;2.652;2022-08-25T02:42:04;25.66;77.63
68450;SHT30;55434;39.570;2.652;2022-08-25T02:44:29;25.67;77.68
68450;SHT30;55434;39.570;2.652;2022-08-25T02:46:56;25.64;77.74
68450;SHT30;55434;39.570;2.652;2022-08-25T02:49:21;25.61;77.41
68450;SHT30;55434;39.570;2.652;2022-08-25T02:51:47;25.63;76.87
68450;SHT30;55434;39.570;2.652;2022-08-25T02:54:13;25.64;75.50
68450;SHT30;55434;39.570;2.652;2022-08-25T02:56:39;25.57;75.19
68450;SHT30;55434;39.570;2.652;2022-08-25T02:59:06;25.59;75.30
68450;SHT30;55434;39.570;2.652;2022-08-25T03:01:32;25.60;75.30
68450;SHT30;55434;39.570;2.652;2022-08-25T03:03:58;25.57;75.14
68450;SHT30;55434;39.570;2.652;2022-08-25T03:06:24;25.54;75.19
68450;SHT30;55434;39.570;2.652;2022-08-25T03:08:50;25.44;75.24
68450;SHT30;55434;39.570;2.652;2022-08-25T03:11:16;25.43;75.28
68450;SHT30;55434;39.570;2.652;2022-08-25T03:13:42;25.44;75.50
68450;SHT30;55434;39.570;2.652;2022-08-25T03:16:08;25.47;75.55
68450;SHT30;55434;39.570;2.652;2022-08-25T03:18:35;25.46;75.65
68450;SHT30;55434;39.570;2.652;2022-08-25T03:21:00;25.49;75.84
68450;SHT30;55434;39.570;2.652;2022-08-25T03:23:27;25.59;75.57
68450;SHT30;55434;39.570;2.652;2022-08-25T03:25:54;25.47;75.53
68450;SHT30;55434;39.570;2.652;2022-08-25T03:28:38;25.40;75.95
68450;SHT30;55434;39.570;2.652;2022-08-25T03:31:03;25.39;76.05
68450;SHT30;55434;39.570;2.652;2022-08-25T03:33:30;25.36;76.30
68450;SHT30;55434;39.570;2.652;2022-08-25T03:35:56;25.33;76.39
68450;SHT30;55434;39.570;2.652;2022-08-25T03:38:23;25.33;76.32
68450;SHT30;55434;39.570;2.652;2022-08-25T03:40:49;25.37;76.32
68450;SHT30;55434;39.570;2.652;2022-08-25T03:43:16;25.46;76.13
68450;SHT30;55434;39.570;2.652;2022-08-25T03:45:42;25.57;75.83
68450;SHT30;55434;39.570;2.652;2022-08-25T03:48:09;25.61;75.72
68450;SHT30;55434;39.570;2.652;2022-08-25T03:50:34;25.63;75.84
68450;SHT30;55434;39.570;2.652;2022-08-25T03:53:00;25.61;76.03
68450;SHT30;55434;39.570;2.652;2022-08-25T03:55:26;25.64;76.10
68450;SHT30;55434;39.570;2.652;2022-08-25T03:57:53;25.64;76.01
68450;SHT30;55434;39.570;2.652;2022-08-25T04:00:21;25.60;76.24
68450;SHT30;55434;39.570;2.652;2022-08-25T04:02:47;25.54;76.40
68450;SHT30;55434;39.570;2.652;2022-08-25T04:05:13;25.57;76.40
68450;SHT30;55434;39.570;2.652;2022-08-25T04:07:39;25.50;76.69
68450;SHT30;55434;39.570;2.652;2022-08-25T04:10:07;25.49;76.81
68450;SHT30;55434;39.570;2.652;2022-08-25T04:12:37;25.43;77.07
68450;SHT30;55434;39.570;2.652;2022-08-25T04:15:04;25.42;77.14
68450;SHT30;55434;39.570;2.652;2022-08-25T04:17:30;25.43;77.05
68450;SHT30;55434;39.570;2.652;2022-08-25T04:19:56;25.46;77.00
68450;SHT30;55434;39.570;2.652;2022-08-25T04:22:22;25.40;76.97
68450;SHT30;55434;39.570;2.652;2022-08-25T04:24:47;25.46;76.94
68450;SHT30;55434;39.570;2.652;2022-08-25T04:27:13;25.39;77.11
68450;SHT30;55434;39.570;2.652;2022-08-25T04:29:39;25.40;77.08
68450;SHT30;55434;39.570;2.652;2022-08-25T04:32:04;25.43;77.00
68450;SHT30;55434;39.570;2.652;2022-08-25T04:34:30;25.50;76.63
68450;SHT30;55434;39.570;2.652;2022-08-25T04:36:56;25.36;76.84
68450;SHT30;55434;39.570;2.652;2022-08-25T04:39:22;25.26;77.42
68450;SHT30;55434;39.570;2.652;2022-08-25T04:41:49;25.16;77.70
68450;SHT30;55434;39.570;2.652;2022-08-25T04:44:15;25.10;77.96
68450;SHT30;55434;39.570;2.652;2022-08-25T04:46:41;25.09;78.05
68450;SHT30;55434;39.570;2.652;2022-08-25T04:49:06;25.08;78.26
68450;SHT30;55434;39.570;2.652;2022-08-25T04:51:35;25.08;78.34
68450;SHT30;55434;39.570;2.652;2022-08-25T04:54:03;25.06;78.34
68450;SHT30;55434;39.570;2.652;2022-08-25T04:56:32;25.15;78.25
68450;SHT30;55434;39.570;2.652;2022-08-25T04:59:05;25.16;78.17
68450;SHT30;55434;39.570;2.652;2022-08-25T05:01:32;25.22;78.09
68450;SHT30;55434;39.570;2.652;2022-08-25T05:04:00;25.23;78.17
68450;SHT30;55434;39.570;2.652;2022-08-25T05:06:27;25.23;78.38
68450;SHT30;55434;39.570;2.652;2022-08-25T05:08:54;25.24;78.32
68450;SHT30;55434;39.570;2.652;2022-08-25T05:11:21;25.26;78.27
68450;SHT30;55434;39.570;2.652;2022-08-25T05:13:48;25.34;77.96
68450;SHT30;55434;39.570;2.652;2022-08-25T05:16:14;25.30;78.25
68450;SHT30;55434;39.570;2.652;2022-08-25T05:18:41;25.27;78.45
68450;SHT30;55434;39.570;2.652;2022-08-25T05:21:12;25.30;78.52
68450;SHT30;55434;39.570;2.652;2022-08-25T05:23:39;25.34;78.48
68450;SHT30;55434;39.570;2.652;2022-08-25T05:26:25;25.39;78.64
68450;SHT30;55434;39.570;2.652;2022-08-25T05:28:53;25.43;78.64
68450;SHT30;55434;39.570;2.652;2022-08-25T05:31:21;25.50;78.48
68450;SHT30;55434;39.570;2.652;2022-08-25T05:33:47;25.56;78.30
68450;SHT30;55434;39.570;2.652;2022-08-25T05:36:13;25.64;78.16
68450;SHT30;55434;39.570;2.652;2022-08-25T05:38:40;25.67;78.04
68450;SHT30;55434;39.570;2.652;2022-08-25T05:41:09;25.69;78.09
68450;SHT30;55434;39.570;2.652;2022-08-25T05:43:36;25.75;77.73
68450;SHT30;55434;39.570;2.652;2022-08-25T05:46:03;25.85;77.56
68450;SHT30;55434;39.570;2.652;2022-08-25T05:48:28;25.88;77.56
68450;SHT30;55434;39.570;2.652;2022-08-25T05:50:57;25.91;77.43
68450;SHT30;55434;39.570;2.652;2022-08-25T05:53:24;25.90;77.46
68450;SHT30;55434;39.570;2.652;2022-08-25T05:55:50;25.94;77.19
68450;SHT30;55434;39.570;2.652;2022-08-25T05:58:17;25.97;77.14
68450;SHT30;55434;39.570;2.652;2022-08-25T06:00:43;26.02;77.00
68450;SHT30;55434;39.570;2.652;2022-08-25T06:03:09;26.06;76.81
68450;SHT30;55434;39.570;2.652;2022-08-25T06:05:35;26.15;76.49
68450;SHT30;55434;39.570;2.652;2022-08-25T06:08:01;26.21;76.39
68450;SHT30;55434;39.570;2.652;2022-08-25T06:10:26;26.28;75.98
68450;SHT30;55434;39.570;2.652;2022-08-25T06:12:52;26.36;75.86
68450;SHT30;55434;39.570;2.652;2022-08-25T06:15:20;26.39;75.83
68450;SHT30;55434;39.570;2.652;2022-08-25T06:17:47;26.51;75.64
68450;SHT30;55434;39.570;2.652;2022-08-25T06:20:21;26.59;75.34
68450;SHT30;55434;39.570;2.652;2022-08-25T06:22:48;26.66;75.08
68450;SHT30;55434;39.570;2.652;2022-08-25T06:25:16;26.80;74.86
68450;SHT30;55434;39.570;2.652;2022-08-25T06:27:42;26.85;74.85
68450;SHT30;55434;39.570;2.652;2022-08-25T06:30:09;26.93;74.20
68450;SHT30;55434;39.570;2.652;2022-08-25T06:32:38;27.08;73.97
68450;SHT30;55434;39.570;2.652;2022-08-25T06:35:06;27.16;73.85
68450;SHT30;55434;39.570;2.652;2022-08-25T06:37:33;27.22;74.15
68450;SHT30;55434;39.570;2.652;2022-08-25T06:39:58;27.29;74.27
68450;SHT30;55434;39.570;2.652;2022-08-25T06:42:24;27.38;74.38
68450;SHT30;55434;39.570;2.652;2022-08-25T06:44:49;27.51;73.71
68450;SHT30;55434;39.570;2.652;2022-08-25T06:47:15;27.65;73.32
68450;SHT30;55434;39.570;2.652;2022-08-25T06:49:42;27.82;72.46
68450;SHT30;55434;39.570;2.652;2022-08-25T06:52:09;27.95;72.16
68450;SHT30;55434;39.570;2.652;2022-08-25T06:54:35;28.09;71.88
68450;SHT30;55434;39.570;2.652;2022-08-25T06:57:01;28.15;70.50
68450;SHT30;55434;39.570;2.652;2022-08-25T06:59:27;28.25;69.50
68450;SHT30;55434;39.570;2.652;2022-08-25T07:01:53;28.35;70.34
68450;SHT30;55434;39.570;2.652;2022-08-25T07:04:19;28.50;69.73
68450;SHT30;55434;39.570;2.652;2022-08-25T07:06:45;28.60;70.29
68450;SHT30;55434;39.570;2.652;2022-08-25T07:09:12;28.66;70.06
68450;SHT30;55434;39.570;2.652;2022-08-25T07:11:39;28.73;70.50
68450;SHT30;55434;39.570;2.652;2022-08-25T07:14:06;28.79;69.73
68450;SHT30;55434;39.570;2.652;2022-08-25T07:16:34;28.93;69.28
68450;SHT30;55434;39.570;2.652;2022-08-25T07:19:01;29.01;69.43
68450;SHT30;55434;39.570;2.652;2022-08-25T07:21:29;29.08;69.23
68450;SHT30;55434;39.570;2.652;2022-08-25T07:23:56;29.14;69.99
68450;SHT30;55434;39.570;2.652;2022-08-25T07:26:28;29.11;70.30
68450;SHT30;55434;39.570;2.652;2022-08-25T07:28:54;29.18;70.24
68450;SHT30;55434;39.570;2.652;2022-08-25T07:31:20;29.10;70.24
68450;SHT30;55434;39.570;2.652;2022-08-25T07:33:46;28.94;70.36
68450;SHT30;55434;39.570;2.652;2022-08-25T07:36:31;28.86;70.53
68450;SHT30;55434;39.570;2.652;2022-08-25T07:38:57;28.74;70.84
68450;SHT30;55434;39.570;2.652;2022-08-25T07:41:23;28.69;70.72
68450;SHT30;55434;39.570;2.652;2022-08-25T07:43:49;28.66;71.33
68450;SHT30;55434;39.570;2.652;2022-08-25T07:46:14;28.63;71.36
68450;SHT30;55434;39.570;2.652;2022-08-25T07:48:40;28.63;71.57
68450;SHT30;55434;39.570;2.652;2022-08-25T07:51:11;28.63;71.41
68450;SHT30;55434;39.570;2.652;2022-08-25T07:53:39;28.60;71.60
68450;SHT30;55434;39.570;2.652;2022-08-25T07:56:13;28.61;71.43
68450;SHT30;55434;39.570;2.652;2022-08-25T07:58:40;28.67;71.60
68450;SHT30;55434;39.570;2.652;2022-08-25T08:01:06;28.71;71.59
68450;SHT30;55434;39.570;2.652;2022-08-25T08:03:37;28.73;72.10
68450;SHT30;55434;39.570;2.652;2022-08-25T08:06:07;28.73;72.03
68450;SHT30;55434;39.570;2.652;2022-08-25T08:08:36;28.71;72.69
68450;SHT30;55434;39.570;2.652;2022-08-25T08:11:02;28.73;73.01
68450;SHT30;55434;39.570;2.652;2022-08-25T08:13:28;28.66;72.71
68450;SHT30;55434;39.570;2.652;2022-08-25T08:15:53;28.69;72.92
68450;SHT30;55434;39.570;2.652;2022-08-25T08:18:19;28.76;73.04
68450;SHT30;55434;39.570;2.652;2022-08-25T08:20:47;28.66;73.62
68450;SHT30;55434;39.570;2.652;2022-08-25T08:23:13;28.71;73.44
68450;SHT30;55434;39.570;2.652;2022-08-25T08:25:39;28.63;73.81
68450;SHT30;55434;39.570;2.652;2022-08-25T08:28:05;28.66;74.06
68450;SHT30;55434;39.570;2.652;2022-08-25T08:30:31;28.69;73.44
68450;SHT30;55434;39.570;2.652;2022-08-25T08:32:56;28.56;73.95
68450;SHT30;55434;39.570;2.652;2022-08-25T08:35:22;28.53;74.12
68450;SHT30;55434;39.570;2.652;2022-08-25T08:37:47;28.60;73.73
68450;SHT30;55434;39.570;2.652;2022-08-25T08:40:16;28.71;73.41
68450;SHT30;55434;39.570;2.652;2022-08-25T08:42:52;28.79;73.01
68450;SHT30;55434;39.570;2.652;2022-08-25T08:50:39;29.04;71.84
68450;SHT30;55434;39.570;2.652;2022-08-25T08:53:17;29.11;71.76
68450;SHT30;55434;39.570;2.652;2022-08-25T08:55:54;29.11;71.74
68450;SHT30;55434;39.570;2.652;2022-08-25T08:58:23;29.22;71.34
68450;SHT30;55434;39.570;2.652;2022-08-25T09:00:55;29.24;71.33
68450;SHT30;55434;39.570;2.652;2022-08-25T09:03:36;29.18;71.55
68450;SHT30;55434;39.570;2.652;2022-08-25T09:06:06;29.14;71.75
68450;SHT30;55434;39.570;2.652;2022-08-25T09:08:33;29.14;71.51
68450;SHT30;55434;39.570;2.652;2022-08-25T09:16:53;29.34;70.82
68450;SHT30;55434;39.570;2.652;2022-08-25T09:30:18;29.98;68.51
68450;SHT30;55434;39.570;2.652;2022-08-25T09:32:47;30.22;67.12
68450;SHT30;55434;39.570;2.652;2022-08-25T09:35:22;30.53;67.36
68450;SHT30;55434;39.570;2.652;2022-08-25T09:37:59;30.47;66.24
68450;SHT30;55434;39.570;2.652;2022-08-25T09:40:26;30.57;65.49
68450;SHT30;55434;39.570;2.652;2022-08-25T09:42:54;30.57;65.26
68450;SHT30;55434;39.570;2.652;2022-08-25T09:48:51;30.63;65.08
68450;SHT30;55434;39.570;2.652;2022-08-25T09:51:30;30.45;65.29
68450;SHT30;55434;39.570;2.652;2022-08-25T09:56:58;30.48;64.09
68450;SHT30;55434;39.570;2.652;2022-08-25T09:59:34;30.56;62.60
68450;SHT30;55434;39.570;2.652;2022-08-25T10:02:04;30.75;62.99
68450;SHT30;55434;39.570;2.652;2022-08-25T10:04:37;30.88;61.26
68450;SHT30;55434;39.570;2.652;2022-08-25T10:07:19;31.02;60.13
68450;SHT30;55434;39.570;2.652;2022-08-25T10:09:52;31.31;59.24
68450;SHT30;55434;39.570;2.652;2022-08-25T10:12:21;31.31;60.38
68450;SHT30;55434;39.570;2.652;2022-08-25T10:14:49;31.29;60.63
68450;SHT30;55434;39.570;2.652;2022-08-25T10:17:30;31.43;60.74
68450;SHT30;55434;39.570;2.652;2022-08-25T10:22:36;31.63;58.59
68450;SHT30;55434;39.570;2.652;2022-08-25T10:25:03;31.80;57.56
68450;SHT30;55434;39.570;2.652;2022-08-25T10:30:22;32.23;57.14
68450;SHT30;55434;39.570;2.652;2022-08-25T10:40:53;31.87;58.88
68450;SHT30;55434;39.570;2.652;2022-08-25T10:43:59;31.82;59.88
68450;SHT30;55434;39.570;2.652;2022-08-25T10:46:48;32.02;59.25
68450;SHT30;55434;39.570;2.652;2022-08-25T10:49:47;32.24;59.34
68450;SHT30;55434;39.570;2.652;2022-08-25T10:54:55;33.98;54.25
68450;SHT30;55434;39.570;2.652;2022-08-25T10:57:50;35.13;51.25
68450;SHT30;55434;39.570;2.652;2022-08-25T11:00:21;35.23;50.86
68450;SHT30;55434;39.570;2.652;2022-08-25T11:03:12;35.19;50.88
68450;SHT30;55434;39.570;2.652;2022-08-25T11:06:02;35.42;50.56
68450;SHT30;55434;39.570;2.652;2022-08-25T11:08:46;35.60;49.68
68450;SHT30;55434;39.570;2.652;2022-08-25T11:11:35;35.57;50.00
68450;SHT30;55434;39.570;2.652;2022-08-25T11:14:07;35.94;49.59
68450;SHT30;55434;39.570;2.652;2022-08-25T11:16:44;35.86;50.10
68450;SHT30;55434;39.570;2.652;2022-08-25T11:19:24;36.83;48.75
68450;SHT30;55434;39.570;2.652;2022-08-25T11:27:20;34.36;54.67
68450;SHT30;55434;39.570;2.652;2022-08-25T11:29:58;34.81;53.11
68450;SHT30;55434;39.570;2.652;2022-08-25T11:32:25;35.59;51.05
68450;SHT30;55434;39.570;2.652;2022-08-25T11:34:51;36.08;49.86
68450;SHT30;55434;39.570;2.652;2022-08-25T11:37:23;36.34;49.42
68450;SHT30;55434;39.570;2.652;2022-08-25T11:43:06;36.79;48.58
68450;SHT30;55434;39.570;2.652;2022-08-25T11:45:48;37.54;47.18
68450;SHT30;55434;39.570;2.652;2022-08-25T11:53:30;36.07;50.25
68450;SHT30;55434;39.570;2.652;2022-08-25T11:56:01;34.67;53.64
68450;SHT30;55434;39.570;2.652;2022-08-25T11:58:42;34.31;54.52
68450;SHT30;55434;39.570;2.652;2022-08-25T12:12:36;34.08;56.52
68450;SHT30;55434;39.570;2.652;2022-08-25T12:15:21;33.93;56.93
68450;SHT30;55434;39.570;2.652;2022-08-25T12:23:36;35.51;52.47
68450;SHT30;55434;39.570;2.652;2022-08-25T12:29:37;35.56;52.25
68450;SHT30;55434;39.570;2.652;2022-08-25T12:37:25;35.96;51.21
68450;SHT30;55434;39.570;2.652;2022-08-25T12:40:03;35.98;51.09
68450;SHT30;55434;39.570;2.652;2022-08-25T12:47:51;34.65;57.30
68450;SHT30;55434;39.570;2.652;2022-08-25T12:50:42;34.85;57.47
68450;SHT30;55434;39.570;2.652;2022-08-25T12:55:47;35.90;54.28
68450;SHT30;55434;39.570;2.652;2022-08-25T12:58:14;35.45;54.98
68450;SHT30;55434;39.570;2.652;2022-08-25T13:13:05;36.78;47.92
68450;SHT30;55434;39.570;2.652;2022-08-25T13:15:40;36.35;48.60
68450;SHT30;55434;39.570;2.652;2022-08-25T13:18:29;36.27;49.27
68450;SHT30;55434;39.570;2.652;2022-08-25T13:21:17;35.98;51.55
68450;SHT30;55434;39.570;2.652;2022-08-25T13:23:46;35.89;52.16
68450;SHT30;55434;39.570;2.652;2022-08-25T13:26:33;34.49;56.89
68450;SHT30;55434;39.570;2.652;2022-08-25T13:31:35;34.67;52.29
68450;SHT30;55434;39.570;2.652;2022-08-25T13:34:08;35.13;50.84
68450;SHT30;55434;39.570;2.652;2022-08-25T13:36:45;35.13;54.49
68450;SHT30;55434;39.570;2.652;2022-08-25T13:39:29;34.38;56.64
68450;SHT30;55434;39.570;2.652;2022-08-25T13:41:58;33.29;58.94
68450;SHT30;55434;39.570;2.652;2022-08-25T13:44:26;32.77;59.98
68450;SHT30;55434;39.570;2.652;2022-08-25T13:47:09;32.47;60.53
68450;SHT30;55434;39.570;2.652;2022-08-25T13:49:36;32.57;59.90
68450;SHT30;55434;39.570;2.652;2022-08-25T13:52:03;32.88;58.18
68450;SHT30;55434;39.570;2.652;2022-08-25T13:54:32;33.06;56.15
68450;SHT30;55434;39.570;2.652;2022-08-25T13:57:26;33.21;55.51
68450;SHT30;55434;39.570;2.652;2022-08-25T14:00:00;33.60;54.58
68450;SHT30;55434;39.570;2.652;2022-08-25T14:02:42;33.52;54.59
68450;SHT30;55434;39.570;2.652;2022-08-25T14:05:09;33.72;53.41
68450;SHT30;55434;39.570;2.652;2022-08-25T14:07:35;34.13;52.76
68450;SHT30;55434;39.570;2.652;2022-08-25T14:10:10;33.97;54.11
68450;SHT30;55434;39.570;2.652;2022-08-25T14:12:44;34.03;54.69
68450;SHT30;55434;39.570;2.652;2022-08-25T14:18:02;33.94;56.81
68450;SHT30;55434;39.570;2.652;2022-08-25T14:20:29;33.89;56.18
68450;SHT30;55434;39.570;2.652;2022-08-25T14:22:57;33.65;55.98
68450;SHT30;55434;39.570;2.652;2022-08-25T14:25:24;34.23;54.13
68450;SHT30;55434;39.570;2.652;2022-08-25T14:27:59;34.25;54.42
68450;SHT30;55434;39.570;2.652;2022-08-25T14:30:26;34.25;54.55
68450;SHT30;55434;39.570;2.652;2022-08-25T14:32:51;34.00;56.02
68450;SHT30;55434;39.570;2.652;2022-08-25T14:35:17;33.67;57.60
68450;SHT30;55434;39.570;2.652;2022-08-25T14:37:44;33.69;57.56
68450;SHT30;55434;39.570;2.652;2022-08-25T14:40:10;33.46;58.16
68450;SHT30;55434;39.570;2.652;2022-08-25T14:42:38;32.23;61.29
68450;SHT30;55434;39.570;2.652;2022-08-25T14:45:04;33.09;60.11
68450;SHT30;55434;39.570;2.652;2022-08-25T14:47:31;33.41;58.57
68450;SHT30;55434;39.570;2.652;2022-08-25T14:49:56;33.93;57.67
68450;SHT30;55434;39.570;2.652;2022-08-25T14:52:25;34.58;56.39
68450;SHT30;55434;39.570;2.652;2022-08-25T14:54:52;34.64;56.24
68450;SHT30;55434;39.570;2.652;2022-08-25T14:57:17;34.78;54.44
68450;SHT30;55434;39.570;2.652;2022-08-25T14:59:44;34.74;54.21
68450;SHT30;55434;39.570;2.652;2022-08-25T15:02:12;34.36;54.94
68450;SHT30;55434;39.570;2.652;2022-08-25T15:04:51;34.28;55.93
68450;SHT30;55434;39.570;2.652;2022-08-25T15:07:17;34.25;56.83
68450;SHT30;55434;39.570;2.652;2022-08-25T15:10:02;33.89;58.34
68450;SHT30;55434;39.570;2.652;2022-08-25T15:12:28;33.43;59.82
68450;SHT30;55434;39.570;2.652;2022-08-25T15:14:55;32.54;61.16
68450;SHT30;55434;39.570;2.652;2022-08-25T15:17:21;31.96;62.50
68450;SHT30;55434;39.570;2.652;2022-08-25T15:19:46;31.83;62.83
68450;SHT30;55434;39.570;2.652;2022-08-25T15:22:12;31.92;63.29
68450;SHT30;55434;39.570;2.652;2022-08-25T15:24:37;31.90;63.91
68450;SHT30;55434;39.570;2.652;2022-08-25T15:27:03;31.76;63.97
68450;SHT30;55434;39.570;2.652;2022-08-25T15:29:32;31.94;64.15
68450;SHT30;55434;39.570;2.652;2022-08-25T15:32:00;31.98;63.96
68450;SHT30;55434;39.570;2.652;2022-08-25T15:34:26;32.13;63.36
68450;SHT30;55434;39.570;2.652;2022-08-25T15:36:52;31.96;63.59
68450;SHT30;55434;39.570;2.652;2022-08-25T15:39:18;31.76;63.97
68450;SHT30;55434;39.570;2.652;2022-08-25T15:41:45;31.72;63.92
68450;SHT30;55434;39.570;2.652;2022-08-25T15:44:13;31.80;64.12
68450;SHT30;55434;39.570;2.652;2022-08-25T15:46:39;33.09;61.20
68450;SHT30;55434;39.570;2.652;2022-08-25T15:49:05;33.76;59.13
68450;SHT30;55434;39.570;2.652;2022-08-25T15:51:31;34.11;58.50
68450;SHT30;55434;39.570;2.652;2022-08-25T15:53:57;34.04;59.14
68450;SHT30;55434;39.570;2.652;2022-08-25T15:56:23;32.77;63.23
68450;SHT30;55434;39.570;2.652;2022-08-25T15:58:49;32.23;64.67
68450;SHT30;55434;39.570;2.652;2022-08-25T16:01:22;31.94;63.35
68450;SHT30;55434;39.570;2.652;2022-08-25T16:03:48;32.55;61.38
68450;SHT30;55434;39.570;2.652;2022-08-25T16:06:13;32.81;61.41
68450;SHT30;55434;39.570;2.652;2022-08-25T16:08:39;32.48;61.59
68450;SHT30;55434;39.570;2.652;2022-08-25T16:11:05;32.28;63.46
68450;SHT30;55434;39.570;2.652;2022-08-25T16:13:31;32.71;62.22
68450;SHT30;55434;39.570;2.652;2022-08-25T16:15:58;32.79;61.43
68450;SHT30;55434;39.570;2.652;2022-08-25T16:18:24;32.92;61.25
68450;SHT30;55434;39.570;2.652;2022-08-25T16:20:50;33.05;60.33
68450;SHT30;55434;39.570;2.652;2022-08-25T16:23:17;33.16;58.14
68450;SHT30;55434;39.570;2.652;2022-08-25T16:25:45;33.69;56.77
68450;SHT30;55434;39.570;2.652;2022-08-25T16:28:11;34.04;57.39
68450;SHT30;55434;39.570;2.652;2022-08-25T16:30:38;33.53;58.08
68450;SHT30;55434;39.570;2.652;2022-08-25T16:33:05;33.60;55.59
68450;SHT30;55434;39.570;2.652;2022-08-25T16:35:32;33.72;56.07
68450;SHT30;55434;39.570;2.652;2022-08-25T16:37:58;34.07;56.05
68450;SHT30;55434;39.570;2.652;2022-08-25T16:40:24;34.06;56.77
68450;SHT30;55434;39.570;2.652;2022-08-25T16:42:51;34.16;57.07
68450;SHT30;55434;39.570;2.652;2022-08-25T16:45:18;34.20;57.34
68450;SHT30;55434;39.570;2.652;2022-08-25T16:47:44;32.91;60.74
68450;SHT30;55434;39.570;2.652;2022-08-25T16:50:11;32.13;63.36
68450;SHT30;55434;39.570;2.652;2022-08-25T16:52:37;31.85;64.12
68450;SHT30;55434;39.570;2.652;2022-08-25T16:55:21;32.96;61.29
68450;SHT30;55434;39.570;2.652;2022-08-25T16:57:49;33.23;60.47
68450;SHT30;55434;39.570;2.652;2022-08-25T17:00:20;33.25;59.80
68450;SHT30;55434;39.570;2.652;2022-08-25T17:02:48;33.62;58.76
68450;SHT30;55434;39.570;2.652;2022-08-25T17:05:16;33.76;58.30
68450;SHT30;55434;39.570;2.652;2022-08-25T17:07:42;33.66;58.67
68450;SHT30;55434;39.570;2.652;2022-08-25T17:10:08;33.33;58.76
68450;SHT30;55434;39.570;2.652;2022-08-25T17:12:34;33.56;58.03
68450;SHT30;55434;39.570;2.652;2022-08-25T17:15:00;33.60;56.26
68450;SHT30;55434;39.570;2.652;2022-08-25T17:17:26;33.72;55.05
68450;SHT30;55434;39.570;2.652;2022-08-25T17:19:51;33.86;55.13
68450;SHT30;55434;39.570;2.652;2022-08-25T17:22:17;34.28;53.43
68450;SHT30;55434;39.570;2.652;2022-08-25T17:24:44;34.52;52.63
68450;SHT30;55434;39.570;2.652;2022-08-25T17:27:10;34.51;52.60
68450;SHT30;55434;39.570;2.652;2022-08-25T17:29:36;33.67;51.32
68450;SHT30;55434;39.570;2.652;2022-08-25T17:32:03;32.96;52.84
68450;SHT30;55434;39.570;2.652;2022-08-25T17:34:29;32.87;53.59